Loei Airport
VTUL : now visible

Airfield :











YOU CAN JOIN US ON...

 
LOGIN :

Register | Disclaimer

   EN    FR    IT 

 









Legend :    VFR   Marginal VFR   IFR   Intensive IFR   Very Intensive IFR
Visi :
Ceiling :
>= 8 km
>= 3000ft
5 to 8 km
1000 to 3000 ft
1500m to 5 km
500 to 1000 ft
800 to 1500m
200 to 500 ft
< 800m
< 200 ft
Symbols :   Thunderstorms  Fog  Heavy snow  Heavy precipitations  Wind > 20 kt






- Airport Elevation : 860 ft
- IATA code : LOE


VTUL - Loei

CURRENT METAR :
  • 281100Z 29007KT 250V340 9999 -TSRA FEW020CB SCT030 BKN080 27/25 Q1008 NOSIG

EXPIRED METARs :
  • 281000Z 14008KT 090V170 9999 TS VCSH FEW016CB SCT030 BKN050 31/23 Q1007 TEMPO FM1015 5000 TSRA

TAF TAF VTUL
Valid from the 28 at 12:00 until the 29 at 12:00 UTC


281100Z 2812/2912 18005KT 9999 SCT030 SCT100
TEMPO 2812/2816 VRB15KT 4500 TSRA FEW018CB BKN020 BKN080
TEMPO 2906/2912 VRB15KT 4500 TSRA FEW018CB BKN020 BKN080
VTBB FIR / Asia



MET'MAP, your aeronautical weather chart ! - Copyright ORBIFLY December 2007 - Disclaimer

ORBIFLY MET'MAP TEAM :

Programming & Development : Alexandra Zaïnal
Concept & original design : Baudouin d'Aumeries
Assistance for programming : Marc-Olivier Méhu
Technical & hardware support : Manuel Goepfert

Contact : metmap@orbifly.com




SOURCES & CREDITS :

   NOAA       Earth
Advisory